sensor_id;sensor_type;location;lat;lon;timestamp;P1;durP1;ratioP1;P2;durP2;ratioP2
48911;SDS011;34722;52.108;5.044;2023-08-20T00:01:28;14.27;;;4.22;;
48911;SDS011;34722;52.108;5.044;2023-08-20T00:03:54;10.45;;;3.03;;
48911;SDS011;34722;52.108;5.044;2023-08-20T00:06:20;11.38;;;3.80;;
48911;SDS011;34722;52.108;5.044;2023-08-20T00:08:46;10.25;;;2.95;;
48911;SDS011;34722;52.108;5.044;2023-08-20T00:11:13;15.13;;;3.58;;
48911;SDS011;34722;52.108;5.044;2023-08-20T00:13:39;10.18;;;2.72;;
48911;SDS011;34722;52.108;5.044;2023-08-20T00:16:05;15.63;;;3.20;;
48911;SDS011;34722;52.108;5.044;2023-08-20T00:18:31;12.13;;;4.55;;
48911;SDS011;34722;52.108;5.044;2023-08-20T00:20:57;6.32;;;2.63;;
48911;SDS011;34722;52.108;5.044;2023-08-20T00:23:23;6.90;;;2.90;;
48911;SDS011;34722;52.108;5.044;2023-08-20T00:28:26;13.85;;;3.03;;
48911;SDS011;34722;52.108;5.044;2023-08-20T00:30:52;10.23;;;3.10;;
48911;SDS011;34722;52.108;5.044;2023-08-20T00:33:18;14.50;;;3.60;;
48911;SDS011;34722;52.108;5.044;2023-08-20T00:35:44;14.93;;;3.25;;
48911;SDS011;34722;52.108;5.044;2023-08-20T00:38:10;16.55;;;3.63;;
48911;SDS011;34722;52.108;5.044;2023-08-20T00:40:41;13.43;;;3.50;;
48911;SDS011;34722;52.108;5.044;2023-08-20T00:43:09;8.35;;;2.75;;
48911;SDS011;34722;52.108;5.044;2023-08-20T00:45:36;8.73;;;2.78;;
48911;SDS011;34722;52.108;5.044;2023-08-20T00:48:03;12.00;;;3.13;;
48911;SDS011;34722;52.108;5.044;2023-08-20T00:50:33;10.57;;;4.03;;
48911;SDS011;34722;52.108;5.044;2023-08-20T00:52:59;13.93;;;2.85;;
48911;SDS011;34722;52.108;5.044;2023-08-20T00:55:25;13.77;;;3.55;;
48911;SDS011;34722;52.108;5.044;2023-08-20T00:57:51;12.07;;;3.33;;
48911;SDS011;34722;52.108;5.044;2023-08-20T01:00:17;10.25;;;3.10;;
48911;SDS011;34722;52.108;5.044;2023-08-20T01:02:43;9.45;;;3.10;;
48911;SDS011;34722;52.108;5.044;2023-08-20T01:05:11;11.90;;;3.35;;
48911;SDS011;34722;52.108;5.044;2023-08-20T01:10:26;13.05;;;5.25;;
48911;SDS011;34722;52.108;5.044;2023-08-20T01:13:10;10.27;;;3.22;;
48911;SDS011;34722;52.108;5.044;2023-08-20T01:15:44;6.85;;;3.28;;
48911;SDS011;34722;52.108;5.044;2023-08-20T01:18:19;9.32;;;3.60;;
48911;SDS011;34722;52.108;5.044;2023-08-20T01:20:58;15.18;;;3.03;;
48911;SDS011;34722;52.108;5.044;2023-08-20T01:26:56;15.27;;;4.72;;
48911;SDS011;34722;52.108;5.044;2023-08-20T01:29:42;9.77;;;3.13;;
48911;SDS011;34722;52.108;5.044;2023-08-20T01:32:11;8.63;;;3.47;;
48911;SDS011;34722;52.108;5.044;2023-08-20T01:34:37;8.75;;;3.97;;
48911;SDS011;34722;52.108;5.044;2023-08-20T01:37:19;9.07;;;3.28;;
48911;SDS011;34722;52.108;5.044;2023-08-20T01:39:48;8.70;;;3.83;;
48911;SDS011;34722;52.108;5.044;2023-08-20T01:42:14;6.90;;;3.15;;
48911;SDS011;34722;52.108;5.044;2023-08-20T01:44:45;14.38;;;3.70;;
48911;SDS011;34722;52.108;5.044;2023-08-20T01:47:17;7.43;;;3.00;;
48911;SDS011;34722;52.108;5.044;2023-08-20T01:53:01;16.80;;;4.30;;
48911;SDS011;34722;52.108;5.044;2023-08-20T01:55:37;21.98;;;4.97;;
48911;SDS011;34722;52.108;5.044;2023-08-20T01:58:13;12.70;;;3.60;;
48911;SDS011;34722;52.108;5.044;2023-08-20T02:00:57;8.23;;;4.03;;
48911;SDS011;34722;52.108;5.044;2023-08-20T02:03:22;14.18;;;4.07;;
48911;SDS011;34722;52.108;5.044;2023-08-20T02:05:52;10.32;;;3.90;;
48911;SDS011;34722;52.108;5.044;2023-08-20T02:08:32;8.98;;;4.07;;
48911;SDS011;34722;52.108;5.044;2023-08-20T02:11:06;11.30;;;3.72;;
48911;SDS011;34722;52.108;5.044;2023-08-20T02:17:00;13.68;;;3.88;;
48911;SDS011;34722;52.108;5.044;2023-08-20T02:19:30;9.40;;;4.68;;
48911;SDS011;34722;52.108;5.044;2023-08-20T02:22:05;16.70;;;4.63;;
48911;SDS011;34722;52.108;5.044;2023-08-20T02:32:41;12.70;;;5.15;;
48911;SDS011;34722;52.108;5.044;2023-08-20T02:35:23;14.02;;;5.43;;
48911;SDS011;34722;52.108;5.044;2023-08-20T02:37:49;17.63;;;6.05;;
48911;SDS011;34722;52.108;5.044;2023-08-20T02:40:18;15.45;;;6.35;;
48911;SDS011;34722;52.108;5.044;2023-08-20T02:42:44;15.57;;;5.18;;
48911;SDS011;34722;52.108;5.044;2023-08-20T02:45:09;11.85;;;4.78;;
48911;SDS011;34722;52.108;5.044;2023-08-20T02:47:35;21.42;;;4.97;;
48911;SDS011;34722;52.108;5.044;2023-08-20T02:50:04;14.90;;;5.45;;
48911;SDS011;34722;52.108;5.044;2023-08-20T02:52:31;12.40;;;6.13;;
48911;SDS011;34722;52.108;5.044;2023-08-20T02:55:04;14.25;;;4.82;;
48911;SDS011;34722;52.108;5.044;2023-08-20T02:57:44;15.80;;;5.53;;
48911;SDS011;34722;52.108;5.044;2023-08-20T03:00:16;21.60;;;8.15;;
48911;SDS011;34722;52.108;5.044;2023-08-20T03:02:46;16.40;;;5.13;;
48911;SDS011;34722;52.108;5.044;2023-08-20T03:05:12;26.17;;;6.50;;
48911;SDS011;34722;52.108;5.044;2023-08-20T03:07:39;13.20;;;5.63;;
48911;SDS011;34722;52.108;5.044;2023-08-20T03:10:15;16.75;;;6.75;;
48911;SDS011;34722;52.108;5.044;2023-08-20T03:12:44;18.15;;;5.75;;
48911;SDS011;34722;52.108;5.044;2023-08-20T03:15:13;13.07;;;5.70;;
48911;SDS011;34722;52.108;5.044;2023-08-20T03:17:38;13.43;;;5.00;;
48911;SDS011;34722;52.108;5.044;2023-08-20T03:20:14;13.10;;;5.35;;
48911;SDS011;34722;52.108;5.044;2023-08-20T03:22:48;21.73;;;8.27;;
48911;SDS011;34722;52.108;5.044;2023-08-20T03:25:14;15.27;;;5.18;;
48911;SDS011;34722;52.108;5.044;2023-08-20T03:27:40;11.35;;;5.25;;
48911;SDS011;34722;52.108;5.044;2023-08-20T03:30:09;11.98;;;6.25;;
48911;SDS011;34722;52.108;5.044;2023-08-20T03:32:35;13.30;;;5.30;;
48911;SDS011;34722;52.108;5.044;2023-08-20T03:35:10;12.77;;;5.53;;
48911;SDS011;34722;52.108;5.044;2023-08-20T03:37:38;20.35;;;5.57;;
48911;SDS011;34722;52.108;5.044;2023-08-20T03:40:04;14.32;;;5.28;;
48911;SDS011;34722;52.108;5.044;2023-08-20T03:42:30;14.32;;;5.38;;
48911;SDS011;34722;52.108;5.044;2023-08-20T03:44:56;13.30;;;4.80;;
48911;SDS011;34722;52.108;5.044;2023-08-20T03:47:21;12.88;;;5.80;;
48911;SDS011;34722;52.108;5.044;2023-08-20T03:49:47;10.60;;;4.90;;
48911;SDS011;34722;52.108;5.044;2023-08-20T03:52:13;15.32;;;5.20;;
48911;SDS011;34722;52.108;5.044;2023-08-20T03:54:47;12.52;;;6.75;;
48911;SDS011;34722;52.108;5.044;2023-08-20T03:57:18;12.98;;;6.22;;
48911;SDS011;34722;52.108;5.044;2023-08-20T03:59:47;13.60;;;5.38;;
48911;SDS011;34722;52.108;5.044;2023-08-20T04:02:13;19.35;;;5.53;;
48911;SDS011;34722;52.108;5.044;2023-08-20T04:04:39;15.43;;;4.95;;
48911;SDS011;34722;52.108;5.044;2023-08-20T04:07:05;9.90;;;4.97;;
48911;SDS011;34722;52.108;5.044;2023-08-20T04:09:32;15.52;;;5.32;;
48911;SDS011;34722;52.108;5.044;2023-08-20T04:11:58;15.23;;;5.75;;
48911;SDS011;34722;52.108;5.044;2023-08-20T04:14:24;10.20;;;4.25;;
48911;SDS011;34722;52.108;5.044;2023-08-20T04:16:50;19.90;;;6.25;;
48911;SDS011;34722;52.108;5.044;2023-08-20T04:19:15;15.05;;;7.45;;
48911;SDS011;34722;52.108;5.044;2023-08-20T04:21:41;16.65;;;5.35;;
48911;SDS011;34722;52.108;5.044;2023-08-20T04:24:10;13.35;;;5.63;;
48911;SDS011;34722;52.108;5.044;2023-08-20T04:26:36;17.25;;;5.43;;
48911;SDS011;34722;52.108;5.044;2023-08-20T04:29:02;12.27;;;4.78;;
48911;SDS011;34722;52.108;5.044;2023-08-20T04:31:28;12.30;;;4.82;;
48911;SDS011;34722;52.108;5.044;2023-08-20T04:33:54;12.07;;;5.07;;
48911;SDS011;34722;52.108;5.044;2023-08-20T04:36:20;11.27;;;4.95;;
48911;SDS011;34722;52.108;5.044;2023-08-20T04:38:46;17.58;;;6.00;;
48911;SDS011;34722;52.108;5.044;2023-08-20T04:41:11;12.98;;;5.15;;
48911;SDS011;34722;52.108;5.044;2023-08-20T04:43:37;12.45;;;5.45;;
48911;SDS011;34722;52.108;5.044;2023-08-20T04:46:03;10.45;;;5.07;;
48911;SDS011;34722;52.108;5.044;2023-08-20T04:48:28;14.73;;;5.10;;
48911;SDS011;34722;52.108;5.044;2023-08-20T04:50:57;18.73;;;5.50;;
48911;SDS011;34722;52.108;5.044;2023-08-20T04:53:33;10.23;;;5.10;;
48911;SDS011;34722;52.108;5.044;2023-08-20T04:56:14;13.10;;;5.25;;
48911;SDS011;34722;52.108;5.044;2023-08-20T04:58:42;16.52;;;5.15;;
48911;SDS011;34722;52.108;5.044;2023-08-20T05:01:08;9.85;;;5.30;;
48911;SDS011;34722;52.108;5.044;2023-08-20T05:03:34;20.17;;;5.95;;
48911;SDS011;34722;52.108;5.044;2023-08-20T05:05:59;8.55;;;5.28;;
48911;SDS011;34722;52.108;5.044;2023-08-20T05:08:26;14.50;;;6.07;;
48911;SDS011;34722;52.108;5.044;2023-08-20T05:10:51;17.90;;;5.88;;
48911;SDS011;34722;52.108;5.044;2023-08-20T05:13:20;15.40;;;6.20;;
48911;SDS011;34722;52.108;5.044;2023-08-20T05:15:49;14.93;;;6.00;;
48911;SDS011;34722;52.108;5.044;2023-08-20T05:18:18;8.80;;;5.20;;
48911;SDS011;34722;52.108;5.044;2023-08-20T05:20:44;13.93;;;4.75;;
48911;SDS011;34722;52.108;5.044;2023-08-20T05:23:09;12.88;;;5.53;;
48911;SDS011;34722;52.108;5.044;2023-08-20T05:25:38;9.02;;;5.38;;
48911;SDS011;34722;52.108;5.044;2023-08-20T05:28:04;16.00;;;5.38;;
48911;SDS011;34722;52.108;5.044;2023-08-20T05:30:35;12.13;;;4.80;;
48911;SDS011;34722;52.108;5.044;2023-08-20T05:33:10;10.73;;;5.20;;
48911;SDS011;34722;52.108;5.044;2023-08-20T05:39:14;12.75;;;5.38;;
48911;SDS011;34722;52.108;5.044;2023-08-20T05:41:51;12.43;;;5.22;;
48911;SDS011;34722;52.108;5.044;2023-08-20T05:44:25;12.65;;;4.43;;
48911;SDS011;34722;52.108;5.044;2023-08-20T05:46:51;18.13;;;7.53;;
48911;SDS011;34722;52.108;5.044;2023-08-20T05:49:17;11.45;;;5.32;;
48911;SDS011;34722;52.108;5.044;2023-08-20T05:51:43;11.63;;;4.97;;
48911;SDS011;34722;52.108;5.044;2023-08-20T05:54:11;14.43;;;6.32;;
48911;SDS011;34722;52.108;5.044;2023-08-20T05:56:54;11.55;;;4.70;;
48911;SDS011;34722;52.108;5.044;2023-08-20T05:59:26;11.88;;;5.05;;
48911;SDS011;34722;52.108;5.044;2023-08-20T06:01:54;13.73;;;6.03;;
48911;SDS011;34722;52.108;5.044;2023-08-20T06:04:23;12.57;;;4.32;;
48911;SDS011;34722;52.108;5.044;2023-08-20T06:06:50;13.60;;;4.80;;
48911;SDS011;34722;52.108;5.044;2023-08-20T06:09:19;13.65;;;5.20;;
48911;SDS011;34722;52.108;5.044;2023-08-20T06:11:44;10.10;;;5.00;;
48911;SDS011;34722;52.108;5.044;2023-08-20T06:14:10;18.67;;;5.47;;
48911;SDS011;34722;52.108;5.044;2023-08-20T06:16:36;10.02;;;4.90;;
48911;SDS011;34722;52.108;5.044;2023-08-20T06:19:05;12.43;;;4.80;;
48911;SDS011;34722;52.108;5.044;2023-08-20T06:21:37;11.35;;;4.85;;
48911;SDS011;34722;52.108;5.044;2023-08-20T06:24:03;12.88;;;4.53;;
48911;SDS011;34722;52.108;5.044;2023-08-20T06:26:29;9.90;;;4.35;;
48911;SDS011;34722;52.108;5.044;2023-08-20T06:28:55;14.27;;;4.45;;
48911;SDS011;34722;52.108;5.044;2023-08-20T06:31:20;10.52;;;4.50;;
48911;SDS011;34722;52.108;5.044;2023-08-20T06:33:46;20.40;;;5.20;;
48911;SDS011;34722;52.108;5.044;2023-08-20T06:36:12;18.00;;;4.70;;
48911;SDS011;34722;52.108;5.044;2023-08-20T06:38:38;15.93;;;4.55;;
48911;SDS011;34722;52.108;5.044;2023-08-20T06:41:03;13.45;;;5.20;;
48911;SDS011;34722;52.108;5.044;2023-08-20T06:43:29;8.13;;;4.93;;
48911;SDS011;34722;52.108;5.044;2023-08-20T06:45:55;9.25;;;3.75;;
48911;SDS011;34722;52.108;5.044;2023-08-20T06:48:20;11.93;;;4.75;;
48911;SDS011;34722;52.108;5.044;2023-08-20T06:50:48;8.05;;;3.35;;
48911;SDS011;34722;52.108;5.044;2023-08-20T06:53:14;12.30;;;4.65;;
48911;SDS011;34722;52.108;5.044;2023-08-20T06:55:39;8.45;;;3.95;;
48911;SDS011;34722;52.108;5.044;2023-08-20T06:58:05;10.35;;;3.38;;
48911;SDS011;34722;52.108;5.044;2023-08-20T07:00:30;8.45;;;3.42;;
48911;SDS011;34722;52.108;5.044;2023-08-20T07:02:56;9.55;;;3.40;;
48911;SDS011;34722;52.108;5.044;2023-08-20T07:05:21;11.38;;;3.53;;
48911;SDS011;34722;52.108;5.044;2023-08-20T07:07:47;5.93;;;3.40;;
48911;SDS011;34722;52.108;5.044;2023-08-20T07:10:12;10.02;;;3.53;;
48911;SDS011;34722;52.108;5.044;2023-08-20T07:12:38;10.05;;;3.60;;
48911;SDS011;34722;52.108;5.044;2023-08-20T07:15:04;10.07;;;3.45;;
48911;SDS011;34722;52.108;5.044;2023-08-20T07:17:30;6.45;;;3.10;;
48911;SDS011;34722;52.108;5.044;2023-08-20T07:19:56;9.95;;;3.40;;
48911;SDS011;34722;52.108;5.044;2023-08-20T07:22:22;9.05;;;3.78;;
48911;SDS011;34722;52.108;5.044;2023-08-20T07:24:47;10.88;;;4.20;;
48911;SDS011;34722;52.108;5.044;2023-08-20T07:27:13;14.60;;;3.90;;
48911;SDS011;34722;52.108;5.044;2023-08-20T07:29:38;6.65;;;3.47;;
48911;SDS011;34722;52.108;5.044;2023-08-20T07:32:05;7.97;;;3.35;;
48911;SDS011;34722;52.108;5.044;2023-08-20T07:34:30;7.97;;;3.47;;
48911;SDS011;34722;52.108;5.044;2023-08-20T07:36:58;8.55;;;3.33;;
48911;SDS011;34722;52.108;5.044;2023-08-20T07:39:23;10.93;;;3.20;;
48911;SDS011;34722;52.108;5.044;2023-08-20T07:41:49;9.68;;;3.38;;
48911;SDS011;34722;52.108;5.044;2023-08-20T07:44:15;9.13;;;2.90;;
48911;SDS011;34722;52.108;5.044;2023-08-20T07:46:40;11.68;;;3.53;;
48911;SDS011;34722;52.108;5.044;2023-08-20T07:49:06;6.90;;;2.70;;
48911;SDS011;34722;52.108;5.044;2023-08-20T07:51:31;9.80;;;3.90;;
48911;SDS011;34722;52.108;5.044;2023-08-20T07:53:57;7.70;;;3.20;;
48911;SDS011;34722;52.108;5.044;2023-08-20T07:56:24;11.25;;;3.65;;
48911;SDS011;34722;52.108;5.044;2023-08-20T07:58:49;9.32;;;3.83;;
48911;SDS011;34722;52.108;5.044;2023-08-20T08:01:15;6.63;;;3.00;;
48911;SDS011;34722;52.108;5.044;2023-08-20T08:03:41;7.60;;;3.33;;
48911;SDS011;34722;52.108;5.044;2023-08-20T08:06:07;7.22;;;3.53;;
48911;SDS011;34722;52.108;5.044;2023-08-20T08:08:32;9.80;;;4.30;;
48911;SDS011;34722;52.108;5.044;2023-08-20T08:11:00;10.77;;;4.93;;
48911;SDS011;34722;52.108;5.044;2023-08-20T08:13:27;7.15;;;3.22;;
48911;SDS011;34722;52.108;5.044;2023-08-20T08:15:52;7.93;;;2.90;;
48911;SDS011;34722;52.108;5.044;2023-08-20T08:18:19;6.63;;;2.80;;
48911;SDS011;34722;52.108;5.044;2023-08-20T08:20:45;8.07;;;3.55;;
48911;SDS011;34722;52.108;5.044;2023-08-20T08:23:10;9.35;;;3.50;;
48911;SDS011;34722;52.108;5.044;2023-08-20T08:25:36;7.43;;;4.25;;
48911;SDS011;34722;52.108;5.044;2023-08-20T08:28:02;9.48;;;4.07;;
48911;SDS011;34722;52.108;5.044;2023-08-20T08:30:28;7.10;;;3.55;;
48911;SDS011;34722;52.108;5.044;2023-08-20T08:32:54;9.45;;;3.80;;
48911;SDS011;34722;52.108;5.044;2023-08-20T08:35:20;6.43;;;2.90;;
48911;SDS011;34722;52.108;5.044;2023-08-20T08:37:46;6.70;;;3.88;;
48911;SDS011;34722;52.108;5.044;2023-08-20T08:40:11;12.00;;;3.67;;
48911;SDS011;34722;52.108;5.044;2023-08-20T08:42:38;6.57;;;3.20;;
48911;SDS011;34722;52.108;5.044;2023-08-20T08:45:05;6.63;;;3.15;;
48911;SDS011;34722;52.108;5.044;2023-08-20T08:47:31;7.28;;;3.00;;
48911;SDS011;34722;52.108;5.044;2023-08-20T08:49:58;7.07;;;2.42;;
48911;SDS011;34722;52.108;5.044;2023-08-20T08:52:24;8.27;;;2.75;;
48911;SDS011;34722;52.108;5.044;2023-08-20T08:54:51;5.05;;;2.45;;
48911;SDS011;34722;52.108;5.044;2023-08-20T08:57:18;5.55;;;2.90;;
48911;SDS011;34722;52.108;5.044;2023-08-20T08:59:44;5.55;;;2.25;;
48911;SDS011;34722;52.108;5.044;2023-08-20T09:02:10;7.07;;;2.53;;
48911;SDS011;34722;52.108;5.044;2023-08-20T09:04:41;5.60;;;2.60;;
48911;SDS011;34722;52.108;5.044;2023-08-20T09:07:14;7.32;;;2.95;;
48911;SDS011;34722;52.108;5.044;2023-08-20T09:09:43;5.00;;;2.60;;
48911;SDS011;34722;52.108;5.044;2023-08-20T09:12:17;6.18;;;2.70;;
48911;SDS011;34722;52.108;5.044;2023-08-20T09:14:48;7.35;;;2.38;;
48911;SDS011;34722;52.108;5.044;2023-08-20T09:17:15;7.18;;;2.85;;
48911;SDS011;34722;52.108;5.044;2023-08-20T09:19:42;5.95;;;2.60;;
48911;SDS011;34722;52.108;5.044;2023-08-20T09:22:12;6.32;;;2.78;;
48911;SDS011;34722;52.108;5.044;2023-08-20T09:24:45;5.15;;;2.40;;
48911;SDS011;34722;52.108;5.044;2023-08-20T09:27:19;5.10;;;2.25;;
48911;SDS011;34722;52.108;5.044;2023-08-20T09:29:49;5.38;;;2.25;;
48911;SDS011;34722;52.108;5.044;2023-08-20T09:32:25;4.10;;;2.28;;
48911;SDS011;34722;52.108;5.044;2023-08-20T09:34:54;6.93;;;2.20;;
48911;SDS011;34722;52.108;5.044;2023-08-20T09:37:24;5.30;;;2.33;;
48911;SDS011;34722;52.108;5.044;2023-08-20T09:39:50;5.55;;;2.05;;
48911;SDS011;34722;52.108;5.044;2023-08-20T09:42:16;4.25;;;2.40;;
48911;SDS011;34722;52.108;5.044;2023-08-20T09:44:45;6.10;;;2.50;;
48911;SDS011;34722;52.108;5.044;2023-08-20T09:47:13;2.70;;;2.08;;
48911;SDS011;34722;52.108;5.044;2023-08-20T09:49:40;4.80;;;2.53;;
48911;SDS011;34722;52.108;5.044;2023-08-20T09:52:31;3.53;;;2.08;;
48911;SDS011;34722;52.108;5.044;2023-08-20T09:55:09;4.05;;;2.55;;
48911;SDS011;34722;52.108;5.044;2023-08-20T09:57:38;5.85;;;2.58;;
48911;SDS011;34722;52.108;5.044;2023-08-20T10:00:06;4.95;;;2.30;;
48911;SDS011;34722;52.108;5.044;2023-08-20T10:02:35;4.53;;;2.17;;
48911;SDS011;34722;52.108;5.044;2023-08-20T10:05:02;6.10;;;2.75;;
48911;SDS011;34722;52.108;5.044;2023-08-20T10:07:30;5.78;;;2.50;;
48911;SDS011;34722;52.108;5.044;2023-08-20T10:09:56;6.53;;;2.83;;
48911;SDS011;34722;52.108;5.044;2023-08-20T10:12:27;4.05;;;2.42;;
48911;SDS011;34722;52.108;5.044;2023-08-20T10:14:53;4.57;;;1.95;;
48911;SDS011;34722;52.108;5.044;2023-08-20T10:17:19;4.65;;;2.03;;
48911;SDS011;34722;52.108;5.044;2023-08-20T10:19:46;4.63;;;2.13;;
48911;SDS011;34722;52.108;5.044;2023-08-20T10:22:12;5.25;;;2.83;;
48911;SDS011;34722;52.108;5.044;2023-08-20T10:24:41;5.57;;;2.50;;
48911;SDS011;34722;52.108;5.044;2023-08-20T10:27:12;3.75;;;2.03;;
48911;SDS011;34722;52.108;5.044;2023-08-20T10:29:38;4.60;;;3.00;;
48911;SDS011;34722;52.108;5.044;2023-08-20T10:32:11;4.32;;;2.58;;
48911;SDS011;34722;52.108;5.044;2023-08-20T10:34:37;4.85;;;2.20;;
48911;SDS011;34722;52.108;5.044;2023-08-20T10:37:20;5.03;;;2.60;;
48911;SDS011;34722;52.108;5.044;2023-08-20T10:39:55;6.43;;;2.17;;
48911;SDS011;34722;52.108;5.044;2023-08-20T10:42:25;4.30;;;2.25;;
48911;SDS011;34722;52.108;5.044;2023-08-20T10:44:58;5.28;;;2.15;;
48911;SDS011;34722;52.108;5.044;2023-08-20T10:50:07;5.78;;;2.10;;
48911;SDS011;34722;52.108;5.044;2023-08-20T10:52:46;2.20;;;1.88;;
48911;SDS011;34722;52.108;5.044;2023-08-20T10:55:23;5.47;;;1.80;;
48911;SDS011;34722;52.108;5.044;2023-08-20T10:57:55;4.90;;;2.28;;
48911;SDS011;34722;52.108;5.044;2023-08-20T11:00:22;5.75;;;2.00;;
48911;SDS011;34722;52.108;5.044;2023-08-20T11:02:49;4.03;;;1.80;;
48911;SDS011;34722;52.108;5.044;2023-08-20T11:05:18;5.13;;;2.45;;
48911;SDS011;34722;52.108;5.044;2023-08-20T11:07:45;3.65;;;2.00;;
48911;SDS011;34722;52.108;5.044;2023-08-20T11:10:17;3.70;;;1.88;;
48911;SDS011;34722;52.108;5.044;2023-08-20T11:12:44;3.97;;;2.00;;
48911;SDS011;34722;52.108;5.044;2023-08-20T11:15:11;4.60;;;2.17;;
48911;SDS011;34722;52.108;5.044;2023-08-20T11:17:47;3.83;;;1.70;;
48911;SDS011;34722;52.108;5.044;2023-08-20T11:20:16;3.00;;;1.80;;
48911;SDS011;34722;52.108;5.044;2023-08-20T11:22:42;3.47;;;2.20;;
48911;SDS011;34722;52.108;5.044;2023-08-20T11:25:11;3.90;;;1.80;;
48911;SDS011;34722;52.108;5.044;2023-08-20T11:27:41;5.82;;;1.67;;
48911;SDS011;34722;52.108;5.044;2023-08-20T11:30:10;3.45;;;2.00;;
48911;SDS011;34722;52.108;5.044;2023-08-20T11:32:39;2.15;;;1.70;;
48911;SDS011;34722;52.108;5.044;2023-08-20T11:35:08;6.85;;;2.22;;
48911;SDS011;34722;52.108;5.044;2023-08-20T11:37:34;2.72;;;1.65;;
48911;SDS011;34722;52.108;5.044;2023-08-20T11:39:59;3.85;;;1.70;;
48911;SDS011;34722;52.108;5.044;2023-08-20T11:42:25;5.63;;;2.00;;
48911;SDS011;34722;52.108;5.044;2023-08-20T11:44:51;5.97;;;2.72;;
48911;SDS011;34722;52.108;5.044;2023-08-20T11:47:22;3.08;;;1.85;;
48911;SDS011;34722;52.108;5.044;2023-08-20T11:49:47;3.33;;;2.35;;
48911;SDS011;34722;52.108;5.044;2023-08-20T11:52:13;5.18;;;1.70;;
48911;SDS011;34722;52.108;5.044;2023-08-20T11:54:38;5.72;;;1.73;;
48911;SDS011;34722;52.108;5.044;2023-08-20T11:57:05;4.45;;;2.20;;
48911;SDS011;34722;52.108;5.044;2023-08-20T11:59:31;4.47;;;2.10;;
48911;SDS011;34722;52.108;5.044;2023-08-20T12:02:01;4.38;;;2.10;;
48911;SDS011;34722;52.108;5.044;2023-08-20T12:04:50;4.50;;;1.98;;
48911;SDS011;34722;52.108;5.044;2023-08-20T12:07:16;4.05;;;1.75;;
48911;SDS011;34722;52.108;5.044;2023-08-20T12:09:42;3.63;;;1.67;;
48911;SDS011;34722;52.108;5.044;2023-08-20T12:12:08;4.10;;;2.05;;
48911;SDS011;34722;52.108;5.044;2023-08-20T12:14:34;5.18;;;1.67;;
48911;SDS011;34722;52.108;5.044;2023-08-20T12:17:01;4.57;;;1.73;;
48911;SDS011;34722;52.108;5.044;2023-08-20T12:19:28;5.80;;;2.15;;
48911;SDS011;34722;52.108;5.044;2023-08-20T12:21:53;5.57;;;1.70;;
48911;SDS011;34722;52.108;5.044;2023-08-20T12:24:19;5.25;;;1.98;;
48911;SDS011;34722;52.108;5.044;2023-08-20T12:26:45;4.63;;;1.95;;
48911;SDS011;34722;52.108;5.044;2023-08-20T12:29:11;6.75;;;2.03;;
48911;SDS011;34722;52.108;5.044;2023-08-20T12:31:37;5.07;;;1.98;;
48911;SDS011;34722;52.108;5.044;2023-08-20T12:34:04;6.32;;;2.00;;
48911;SDS011;34722;52.108;5.044;2023-08-20T12:36:33;8.45;;;2.00;;
48911;SDS011;34722;52.108;5.044;2023-08-20T12:45:16;4.03;;;1.98;;
48911;SDS011;34722;52.108;5.044;2023-08-20T12:47:41;5.72;;;1.90;;
48911;SDS011;34722;52.108;5.044;2023-08-20T12:50:07;6.00;;;1.92;;
48911;SDS011;34722;52.108;5.044;2023-08-20T12:52:33;7.60;;;2.35;;
48911;SDS011;34722;52.108;5.044;2023-08-20T12:54:59;4.30;;;1.70;;
48911;SDS011;34722;52.108;5.044;2023-08-20T12:57:25;7.15;;;2.95;;
48911;SDS011;34722;52.108;5.044;2023-08-20T12:59:51;6.10;;;2.25;;
48911;SDS011;34722;52.108;5.044;2023-08-20T13:02:18;12.27;;;3.38;;
48911;SDS011;34722;52.108;5.044;2023-08-20T13:04:44;9.90;;;1.80;;
48911;SDS011;34722;52.108;5.044;2023-08-20T13:07:11;6.55;;;2.13;;
48911;SDS011;34722;52.108;5.044;2023-08-20T13:09:44;7.47;;;2.22;;
48911;SDS011;34722;52.108;5.044;2023-08-20T13:12:10;4.82;;;1.90;;
48911;SDS011;34722;52.108;5.044;2023-08-20T13:14:39;8.82;;;1.75;;
48911;SDS011;34722;52.108;5.044;2023-08-20T13:17:06;6.00;;;1.58;;
48911;SDS011;34722;52.108;5.044;2023-08-20T13:19:32;4.20;;;1.92;;
48911;SDS011;34722;52.108;5.044;2023-08-20T13:21:58;5.85;;;2.15;;
48911;SDS011;34722;52.108;5.044;2023-08-20T13:24:23;5.10;;;1.90;;
48911;SDS011;34722;52.108;5.044;2023-08-20T13:26:50;8.85;;;2.00;;
48911;SDS011;34722;52.108;5.044;2023-08-20T13:29:16;6.88;;;1.90;;
48911;SDS011;34722;52.108;5.044;2023-08-20T13:31:41;5.28;;;1.65;;
48911;SDS011;34722;52.108;5.044;2023-08-20T13:34:07;5.90;;;1.50;;
48911;SDS011;34722;52.108;5.044;2023-08-20T13:36:33;5.20;;;1.80;;
48911;SDS011;34722;52.108;5.044;2023-08-20T13:38:58;7.03;;;2.53;;
48911;SDS011;34722;52.108;5.044;2023-08-20T13:41:24;7.15;;;2.38;;
48911;SDS011;34722;52.108;5.044;2023-08-20T13:43:49;6.78;;;1.80;;
48911;SDS011;34722;52.108;5.044;2023-08-20T13:46:16;4.88;;;1.88;;
48911;SDS011;34722;52.108;5.044;2023-08-20T13:48:41;4.00;;;1.65;;
48911;SDS011;34722;52.108;5.044;2023-08-20T13:51:07;8.13;;;1.75;;
48911;SDS011;34722;52.108;5.044;2023-08-20T13:53:32;4.57;;;2.17;;
48911;SDS011;34722;52.108;5.044;2023-08-20T13:55:58;4.63;;;1.73;;
48911;SDS011;34722;52.108;5.044;2023-08-20T13:58:23;4.47;;;1.67;;
48911;SDS011;34722;52.108;5.044;2023-08-20T14:00:49;6.72;;;2.00;;
48911;SDS011;34722;52.108;5.044;2023-08-20T14:03:15;5.20;;;2.35;;
48911;SDS011;34722;52.108;5.044;2023-08-20T14:05:40;4.95;;;2.17;;
48911;SDS011;34722;52.108;5.044;2023-08-20T14:08:06;6.57;;;2.30;;
48911;SDS011;34722;52.108;5.044;2023-08-20T14:10:32;4.45;;;1.70;;
48911;SDS011;34722;52.108;5.044;2023-08-20T14:13:00;4.13;;;1.52;;
48911;SDS011;34722;52.108;5.044;2023-08-20T14:15:25;8.20;;;1.50;;
48911;SDS011;34722;52.108;5.044;2023-08-20T14:17:52;6.13;;;1.75;;
48911;SDS011;34722;52.108;5.044;2023-08-20T14:20:17;4.82;;;1.67;;
48911;SDS011;34722;52.108;5.044;2023-08-20T14:22:43;9.63;;;2.20;;
48911;SDS011;34722;52.108;5.044;2023-08-20T14:25:08;7.40;;;1.88;;
48911;SDS011;34722;52.108;5.044;2023-08-20T14:27:34;6.18;;;1.88;;
48911;SDS011;34722;52.108;5.044;2023-08-20T14:30:00;3.35;;;1.85;;
48911;SDS011;34722;52.108;5.044;2023-08-20T14:32:26;6.50;;;2.33;;
48911;SDS011;34722;52.108;5.044;2023-08-20T14:34:51;7.13;;;2.08;;
48911;SDS011;34722;52.108;5.044;2023-08-20T14:37:17;6.57;;;1.90;;
48911;SDS011;34722;52.108;5.044;2023-08-20T14:39:46;7.28;;;2.80;;
48911;SDS011;34722;52.108;5.044;2023-08-20T14:42:12;4.35;;;1.88;;
48911;SDS011;34722;52.108;5.044;2023-08-20T14:44:37;5.43;;;1.85;;
48911;SDS011;34722;52.108;5.044;2023-08-20T14:47:03;5.10;;;2.10;;
48911;SDS011;34722;52.108;5.044;2023-08-20T14:49:29;3.85;;;1.52;;
48911;SDS011;34722;52.108;5.044;2023-08-20T14:51:55;5.22;;;1.73;;
48911;SDS011;34722;52.108;5.044;2023-08-20T14:54:21;5.25;;;1.95;;
48911;SDS011;34722;52.108;5.044;2023-08-20T14:56:46;7.25;;;1.67;;
48911;SDS011;34722;52.108;5.044;2023-08-20T14:59:14;4.68;;;1.67;;
48911;SDS011;34722;52.108;5.044;2023-08-20T15:01:41;3.60;;;1.50;;
48911;SDS011;34722;52.108;5.044;2023-08-20T15:04:07;4.22;;;1.48;;
48911;SDS011;34722;52.108;5.044;2023-08-20T15:06:33;5.30;;;1.45;;
48911;SDS011;34722;52.108;5.044;2023-08-20T15:08:59;5.38;;;1.65;;
48911;SDS011;34722;52.108;5.044;2023-08-20T15:11:24;7.85;;;2.03;;
48911;SDS011;34722;52.108;5.044;2023-08-20T15:13:50;5.93;;;1.75;;
48911;SDS011;34722;52.108;5.044;2023-08-20T15:16:17;7.22;;;1.70;;
48911;SDS011;34722;52.108;5.044;2023-08-20T15:18:42;6.43;;;1.80;;
48911;SDS011;34722;52.108;5.044;2023-08-20T15:21:08;6.15;;;1.55;;
48911;SDS011;34722;52.108;5.044;2023-08-20T15:23:55;5.43;;;1.80;;